Time;durP1;ratioP1;P1;durP2;ratioP2;P2;SDS_P1;SDS_P2;PMS_P1;PMS_P2;Temp;Humidity;BMP_temperature;BMP_pressure;BME280_temperature;BME280_humidity;BME280_pressure;Samples;Min_cycle;Max_cycle;Signal;HPM_P1;HPM_P2
2022/10/27 00:00:05;;;;;;;;;4.00;3.00;;;;;;;;5090515;27;45411;-80
2022/10/27 00:02:30;;;;;;;;;2.00;2.00;;;;;;;;5081613;27;45513;-80
2022/10/27 00:04:56;;;;;;;;;4.00;3.67;;;;;;;;5091340;27;46157;-79
2022/10/27 00:07:21;;;;;;;;;5.33;5.33;;;;;;;;5080296;28;45302;-79
2022/10/27 00:09:46;;;;;;;;;4.00;4.00;;;;;;;;5067264;27;45303;-80
2022/10/27 00:12:11;;;;;;;;;5.33;3.67;;;;;;;;5093815;27;45676;-79
2022/10/27 00:14:36;;;;;;;;;5.00;4.00;;;;;;;;5081187;27;45605;-80
2022/10/27 00:17:02;;;;;;;;;3.33;3.33;;;;;;;;5097187;27;45427;-80
2022/10/27 00:19:27;;;;;;;;;2.33;2.33;;;;;;;;5063745;28;45292;-80
2022/10/27 00:21:52;;;;;;;;;3.00;3.00;;;;;;;;5095699;27;45377;-80
2022/10/27 00:24:18;;;;;;;;;2.33;2.33;;;;;;;;5088910;27;45247;-80
2022/10/27 00:26:44;;;;;;;;;3.00;3.00;;;;;;;;5095013;27;45520;-79
2022/10/27 00:29:09;;;;;;;;;2.00;2.00;;;;;;;;5089175;27;45246;-80
2022/10/27 00:31:34;;;;;;;;;6.67;5.00;;;;;;;;5093420;27;45467;-79
2022/10/27 00:33:59;;;;;;;;;3.33;3.00;;;;;;;;5082035;27;47081;-80
2022/10/27 00:36:25;;;;;;;;;3.33;2.67;;;;;;;;5071423;27;45223;-79
2022/10/27 00:38:54;;;;;;;;;4.00;2.33;;;;;;;;5087310;27;45268;-80
2022/10/27 00:41:30;;;;;;;;;4.33;3.00;;;;;;;;5075197;28;47079;-80
2022/10/27 00:43:57;;;;;;;;;2.00;2.00;;;;;;;;5081981;27;45282;-80
2022/10/27 00:46:38;;;;;;;;;5.00;3.67;;;;;;;;5092642;27;45304;-80
2022/10/27 00:49:11;;;;;;;;;2.67;2.00;;;;;;;;5070054;27;45282;-79
2022/10/27 00:51:40;;;;;;;;;4.67;3.00;;;;;;;;5092560;27;45431;-79
2022/10/27 00:54:05;;;;;;;;;3.00;3.00;;;;;;;;5097211;27;45370;-79
2022/10/27 00:56:31;;;;;;;;;4.00;3.33;;;;;;;;5093154;27;45431;-79
2022/10/27 00:58:56;;;;;;;;;4.00;3.00;;;;;;;;5085701;27;45344;-79
2022/10/27 01:01:22;;;;;;;;;4.33;3.67;;;;;;;;5073920;27;46417;-80
2022/10/27 01:03:47;;;;;;;;;4.00;3.00;;;;;;;;5085969;27;46328;-79
2022/10/27 01:06:13;;;;;;;;;3.67;3.00;;;;;;;;5093007;27;45316;-79
2022/10/27 01:08:38;;;;;;;;;3.00;3.00;;;;;;;;5081862;27;45306;-79
2022/10/27 01:11:04;;;;;;;;;4.67;3.00;;;;;;;;5086758;27;45410;-80
2022/10/27 01:13:29;;;;;;;;;3.33;2.00;;;;;;;;5082553;27;45295;-80
2022/10/27 01:15:57;;;;;;;;;2.67;2.67;;;;;;;;5071231;27;45376;-79
2022/10/27 01:18:22;;;;;;;;;4.00;2.33;;;;;;;;5087479;27;45409;-79
2022/10/27 01:20:51;;;;;;;;;4.00;4.00;;;;;;;;5096487;27;45568;-79
2022/10/27 01:23:29;;;;;;;;;4.00;2.33;;;;;;;;5088824;27;45387;-79
2022/10/27 01:26:11;;;;;;;;;3.00;3.00;;;;;;;;5102988;27;45247;-79
2022/10/27 01:28:45;;;;;;;;;5.67;3.00;;;;;;;;5096213;27;45271;-79
2022/10/27 01:31:13;;;;;;;;;6.00;3.00;;;;;;;;5074150;27;45971;-79
2022/10/27 01:33:49;;;;;;;;;4.33;3.00;;;;;;;;5087498;27;46324;-80
2022/10/27 01:36:29;;;;;;;;;4.00;2.00;;;;;;;;5092126;27;45366;-80
2022/10/27 01:39:01;;;;;;;;;2.00;2.00;;;;;;;;5086347;27;45347;-80
2022/10/27 01:41:29;;;;;;;;;2.67;2.67;;;;;;;;5093029;27;45545;-79
2022/10/27 01:43:58;;;;;;;;;2.33;2.33;;;;;;;;5089850;27;46226;-79
2022/10/27 01:46:24;;;;;;;;;3.33;3.33;;;;;;;;5084848;27;45450;-79
2022/10/27 01:48:49;;;;;;;;;5.00;2.67;;;;;;;;5094977;27;45208;-79
2022/10/27 01:51:14;;;;;;;;;7.67;3.00;;;;;;;;5085271;27;45856;-79
2022/10/27 01:53:43;;;;;;;;;3.00;3.00;;;;;;;;5063770;27;47024;-79
2022/10/27 01:56:41;;;;;;;;;2.00;2.00;;;;;;;;5075281;27;45365;-79
2022/10/27 01:59:06;;;;;;;;;4.33;3.00;;;;;;;;5068910;27;45368;-80
2022/10/27 02:01:31;;;;;;;;;3.00;3.00;;;;;;;;5076259;27;45832;-80
2022/10/27 02:04:12;;;;;;;;;2.67;2.00;;;;;;;;5079993;27;47238;-80
2022/10/27 02:06:54;;;;;;;;;2.00;2.00;;;;;;;;5081764;27;45373;-80
2022/10/27 02:09:30;;;;;;;;;2.00;2.00;;;;;;;;5089820;27;45391;-80
2022/10/27 02:11:56;;;;;;;;;4.00;3.00;;;;;;;;5091347;27;45578;-80
2022/10/27 02:14:22;;;;;;;;;5.00;3.33;;;;;;;;5068376;27;46424;-80
2022/10/27 02:16:49;;;;;;;;;2.67;2.67;;;;;;;;5092946;27;45235;-80
2022/10/27 02:19:20;;;;;;;;;3.67;3.00;;;;;;;;5098032;27;45239;-80
2022/10/27 02:21:46;;;;;;;;;3.67;3.67;;;;;;;;5092643;27;45343;-80
2022/10/27 02:24:11;;;;;;;;;4.33;3.00;;;;;;;;5090502;27;45262;-80
2022/10/27 02:26:46;;;;;;;;;2.33;2.33;;;;;;;;5080462;27;45294;-80
2022/10/27 02:29:15;;;;;;;;;3.00;2.00;;;;;;;;5094463;27;44653;-80
2022/10/27 02:31:44;;;;;;;;;3.00;3.00;;;;;;;;5100464;27;46137;-80
2022/10/27 02:34:09;;;;;;;;;2.00;2.00;;;;;;;;5095922;27;45231;-80
2022/10/27 02:36:35;;;;;;;;;3.67;2.00;;;;;;;;5095989;27;45227;-79
2022/10/27 02:39:00;;;;;;;;;5.67;4.00;;;;;;;;5088807;27;45434;-79
2022/10/27 02:41:25;;;;;;;;;3.00;1.67;;;;;;;;5083807;27;46614;-80
2022/10/27 02:43:51;;;;;;;;;4.00;3.00;;;;;;;;5094177;27;45446;-81
2022/10/27 02:46:16;;;;;;;;;3.00;3.00;;;;;;;;5097372;27;45206;-80
2022/10/27 02:48:41;;;;;;;;;3.00;3.00;;;;;;;;5087139;27;45368;-79
2022/10/27 02:51:06;;;;;;;;;6.00;3.00;;;;;;;;5098467;27;45803;-80
2022/10/27 02:53:31;;;;;;;;;3.00;3.00;;;;;;;;5085941;27;45937;-80
2022/10/27 02:55:57;;;;;;;;;2.00;2.00;;;;;;;;5095307;27;45367;-80
2022/10/27 02:58:22;;;;;;;;;3.67;3.00;;;;;;;;5085342;27;45386;-80
2022/10/27 03:22:36;;;;;;;;;5.00;3.00;;;;;;;;5094606;27;74212;-79
2022/10/27 03:25:01;;;;;;;;;3.00;2.00;;;;;;;;5105340;27;45327;-79
2022/10/27 03:27:27;;;;;;;;;4.00;2.00;;;;;;;;5092271;27;45316;-79
2022/10/27 03:29:52;;;;;;;;;5.00;4.00;;;;;;;;5082102;28;45254;-80
2022/10/27 03:32:17;;;;;;;;;3.00;2.33;;;;;;;;5075725;27;46953;-79
2022/10/27 03:34:42;;;;;;;;;5.00;4.00;;;;;;;;5088243;27;45308;-80
2022/10/27 03:37:07;;;;;;;;;6.00;3.00;;;;;;;;5082613;27;45292;-79
2022/10/27 03:39:33;;;;;;;;;7.00;3.67;;;;;;;;5081835;27;46132;-79
2022/10/27 03:41:58;;;;;;;;;3.00;3.00;;;;;;;;5090966;27;45194;-80
2022/10/27 03:44:23;;;;;;;;;4.33;4.33;;;;;;;;5082157;27;45399;-80
2022/10/27 03:46:48;;;;;;;;;3.33;3.33;;;;;;;;5076325;27;45489;-79
2022/10/27 03:49:13;;;;;;;;;5.00;4.00;;;;;;;;5084094;27;45146;-80
2022/10/27 03:51:39;;;;;;;;;2.67;2.67;;;;;;;;5082367;28;45413;-80
2022/10/27 03:54:04;;;;;;;;;3.33;3.33;;;;;;;;5083405;27;45415;-80
2022/10/27 03:56:29;;;;;;;;;6.33;4.00;;;;;;;;5075480;27;45251;-81
2022/10/27 03:58:54;;;;;;;;;3.67;2.33;;;;;;;;5066449;28;45995;-80
2022/10/27 04:01:19;;;;;;;;;4.67;3.00;;;;;;;;5076672;27;45355;-79
2022/10/27 04:03:46;;;;;;;;;6.00;3.00;;;;;;;;5086913;27;45212;-79
2022/10/27 04:06:11;;;;;;;;;5.67;4.00;;;;;;;;5086174;28;45261;-80
2022/10/27 04:08:36;;;;;;;;;4.33;4.33;;;;;;;;5088492;27;45596;-80
2022/10/27 04:11:02;;;;;;;;;6.67;3.00;;;;;;;;5082028;27;46515;-80
2022/10/27 04:13:27;;;;;;;;;4.67;4.00;;;;;;;;5088078;27;45220;-80
2022/10/27 04:15:52;;;;;;;;;4.00;4.00;;;;;;;;5085667;27;45505;-80
2022/10/27 04:18:17;;;;;;;;;4.33;3.00;;;;;;;;5085090;27;45196;-80
2022/10/27 04:20:42;;;;;;;;;5.00;3.33;;;;;;;;5085245;28;46010;-80
2022/10/27 04:23:08;;;;;;;;;3.33;3.00;;;;;;;;5086271;28;45495;-79
2022/10/27 04:25:33;;;;;;;;;4.00;2.00;;;;;;;;5082859;27;45471;-79
2022/10/27 04:28:05;;;;;;;;;4.00;4.00;;;;;;;;5098120;27;44812;-80
2022/10/27 04:30:31;;;;;;;;;4.00;4.00;;;;;;;;5084124;27;45593;-80
2022/10/27 04:32:56;;;;;;;;;4.00;4.00;;;;;;;;5102070;27;45282;-80
2022/10/27 04:35:21;;;;;;;;;2.67;2.67;;;;;;;;5091994;27;45527;-80
2022/10/27 04:37:47;;;;;;;;;4.67;4.00;;;;;;;;5082717;27;45432;-79
2022/10/27 04:40:12;;;;;;;;;4.00;4.00;;;;;;;;5082944;28;46065;-80
2022/10/27 04:42:42;;;;;;;;;4.67;3.00;;;;;;;;5085954;27;45172;-80
2022/10/27 04:45:07;;;;;;;;;3.00;3.00;;;;;;;;5093906;27;45276;-80
2022/10/27 04:47:33;;;;;;;;;3.33;2.00;;;;;;;;5081435;27;45296;-79
2022/10/27 04:49:58;;;;;;;;;4.33;4.33;;;;;;;;5081033;27;45306;-79
2022/10/27 04:52:23;;;;;;;;;4.00;4.00;;;;;;;;5081189;27;45307;-79
2022/10/27 04:54:48;;;;;;;;;4.67;3.33;;;;;;;;5081353;27;45202;-80
2022/10/27 04:57:13;;;;;;;;;4.33;3.33;;;;;;;;5079723;27;47508;-80
2022/10/27 04:59:39;;;;;;;;;4.00;4.00;;;;;;;;5091387;27;45200;-79
2022/10/27 05:02:04;;;;;;;;;4.00;4.00;;;;;;;;5081123;28;45251;-80
2022/10/27 05:04:29;;;;;;;;;5.00;5.00;;;;;;;;5081198;28;45229;-80
2022/10/27 05:06:54;;;;;;;;;4.00;2.00;;;;;;;;5080853;28;45158;-79
2022/10/27 05:09:19;;;;;;;;;4.00;4.00;;;;;;;;5071755;27;46860;-79
2022/10/27 05:11:44;;;;;;;;;3.00;3.00;;;;;;;;5097358;27;45272;-80
2022/10/27 05:14:10;;;;;;;;;6.00;4.67;;;;;;;;5081713;28;45249;-79
2022/10/27 05:16:35;;;;;;;;;5.00;4.00;;;;;;;;5081744;28;45230;-80
2022/10/27 05:19:00;;;;;;;;;4.00;4.00;;;;;;;;5073922;27;47148;-79
2022/10/27 05:21:25;;;;;;;;;6.67;4.00;;;;;;;;5089147;27;45229;-79
2022/10/27 05:23:50;;;;;;;;;4.67;3.33;;;;;;;;5075941;27;45245;-79
2022/10/27 05:26:16;;;;;;;;;8.00;4.00;;;;;;;;5101065;27;45655;-79
2022/10/27 05:28:43;;;;;;;;;7.33;4.00;;;;;;;;5101042;27;46442;-79
2022/10/27 05:31:08;;;;;;;;;5.00;4.00;;;;;;;;5098533;27;45331;-79
2022/10/27 05:33:34;;;;;;;;;5.00;3.33;;;;;;;;5080643;28;45417;-79
2022/10/27 05:35:59;;;;;;;;;5.33;4.00;;;;;;;;5084609;27;45745;-79
2022/10/27 05:38:24;;;;;;;;;7.00;5.67;;;;;;;;5080505;28;46464;-79
2022/10/27 05:40:53;;;;;;;;;5.33;4.67;;;;;;;;5080151;28;45307;-80
2022/10/27 05:43:18;;;;;;;;;4.00;4.00;;;;;;;;5071849;27;44617;-80
2022/10/27 05:45:44;;;;;;;;;5.67;5.00;;;;;;;;5095899;27;45729;-80
2022/10/27 05:48:09;;;;;;;;;3.00;3.00;;;;;;;;5080227;28;45391;-80
2022/10/27 05:50:35;;;;;;;;;7.00;4.00;;;;;;;;5080215;28;45410;-80
2022/10/27 05:53:00;;;;;;;;;7.00;4.33;;;;;;;;5080410;28;45212;-79
2022/10/27 05:55:26;;;;;;;;;4.00;4.00;;;;;;;;5080167;28;45192;-79
2022/10/27 05:57:55;;;;;;;;;6.00;6.00;;;;;;;;5085666;27;46514;-80
2022/10/27 06:00:21;;;;;;;;;7.33;5.00;;;;;;;;5079026;27;45319;-80
2022/10/27 06:02:47;;;;;;;;;7.00;6.00;;;;;;;;5075116;27;45256;-79
2022/10/27 06:05:12;;;;;;;;;8.00;5.67;;;;;;;;5084789;27;45325;-79
2022/10/27 06:07:37;;;;;;;;;5.67;5.67;;;;;;;;5071127;27;47172;-80
2022/10/27 06:10:02;;;;;;;;;7.33;5.00;;;;;;;;5084690;27;45312;-80
2022/10/27 06:12:27;;;;;;;;;5.00;4.00;;;;;;;;5080016;27;45470;-80
2022/10/27 06:14:53;;;;;;;;;7.33;7.33;;;;;;;;5079625;28;45398;-80
2022/10/27 06:17:18;;;;;;;;;6.00;4.67;;;;;;;;5079971;27;45560;-80
2022/10/27 06:19:43;;;;;;;;;5.00;4.67;;;;;;;;5075300;27;45267;-80
2022/10/27 06:22:08;;;;;;;;;4.00;4.00;;;;;;;;5080103;28;45428;-80
2022/10/27 06:24:33;;;;;;;;;8.00;6.00;;;;;;;;5079827;27;45479;-80
2022/10/27 06:26:59;;;;;;;;;4.00;4.00;;;;;;;;5087603;27;45201;-80
2022/10/27 06:29:24;;;;;;;;;1.00;1.00;;;;;;;;5099855;27;45274;-80
2022/10/27 06:31:49;;;;;;;;;5.00;5.00;;;;;;;;5081610;27;45579;-80
2022/10/27 06:34:14;;;;;;;;;4.00;4.00;;;;;;;;5071540;27;46603;-80
2022/10/27 06:36:39;;;;;;;;;5.00;5.00;;;;;;;;5079761;28;45204;-80
2022/10/27 06:39:04;;;;;;;;;7.00;6.00;;;;;;;;5083021;27;45203;-80
2022/10/27 06:41:30;;;;;;;;;8.00;5.00;;;;;;;;5083443;27;45240;-80
2022/10/27 06:43:55;;;;;;;;;6.00;5.67;;;;;;;;5079730;28;45208;-80
2022/10/27 06:46:20;;;;;;;;;5.00;5.00;;;;;;;;5079269;27;45207;-79
2022/10/27 06:48:45;;;;;;;;;4.67;2.33;;;;;;;;5079571;28;45213;-80
2022/10/27 06:51:10;;;;;;;;;4.67;4.67;;;;;;;;5079755;28;45225;-79
2022/10/27 06:53:36;;;;;;;;;6.67;6.33;;;;;;;;5079418;28;45187;-80
2022/10/27 06:56:01;;;;;;;;;5.67;5.67;;;;;;;;5079162;28;46452;-80
2022/10/27 06:58:26;;;;;;;;;7.33;6.00;;;;;;;;5085057;27;45265;-80
2022/10/27 07:00:51;;;;;;;;;5.67;5.33;;;;;;;;5079431;28;45158;-79
2022/10/27 07:03:16;;;;;;;;;7.67;5.00;;;;;;;;5079342;27;45228;-80
2022/10/27 07:05:42;;;;;;;;;5.67;4.67;;;;;;;;5081111;27;45460;-80
2022/10/27 07:08:07;;;;;;;;;5.00;5.00;;;;;;;;5086412;27;45213;-80
2022/10/27 07:10:32;;;;;;;;;9.67;4.33;;;;;;;;5081268;27;45203;-80
2022/10/27 07:12:58;;;;;;;;;3.00;3.00;;;;;;;;5081701;27;45296;-80
2022/10/27 07:15:24;;;;;;;;;5.33;5.33;;;;;;;;5083089;27;45327;-80
2022/10/27 07:17:53;;;;;;;;;5.33;4.00;;;;;;;;5085584;28;45437;-80
2022/10/27 07:20:19;;;;;;;;;5.00;4.00;;;;;;;;5075369;27;45436;-79
2022/10/27 07:22:44;;;;;;;;;7.33;5.00;;;;;;;;5090988;27;45358;-80
2022/10/27 07:25:09;;;;;;;;;7.00;5.67;;;;;;;;5082705;27;45389;-79
2022/10/27 07:27:34;;;;;;;;;5.00;5.00;;;;;;;;5095348;27;45385;-79
2022/10/27 07:29:59;;;;;;;;;8.00;5.00;;;;;;;;5102699;27;45232;-79
2022/10/27 07:32:24;;;;;;;;;7.67;6.00;;;;;;;;5102924;27;45209;-79
2022/10/27 07:34:50;;;;;;;;;7.00;6.00;;;;;;;;5096403;27;46625;-79
2022/10/27 07:37:15;;;;;;;;;5.67;5.67;;;;;;;;5082311;27;45285;-80
2022/10/27 07:39:40;;;;;;;;;8.00;7.00;;;;;;;;5083407;27;45185;-80
2022/10/27 07:42:05;;;;;;;;;6.00;5.00;;;;;;;;5090070;27;45166;-79
2022/10/27 07:44:33;;;;;;;;;10.00;7.00;;;;;;;;5081774;27;45146;-80
2022/10/27 07:46:58;;;;;;;;;9.67;5.33;;;;;;;;5082180;28;45363;-80
2022/10/27 07:49:23;;;;;;;;;7.33;5.33;;;;;;;;5081338;28;45315;-79
2022/10/27 07:51:49;;;;;;;;;9.00;7.00;;;;;;;;5082400;28;45303;-80
2022/10/27 07:54:14;;;;;;;;;9.00;8.33;;;;;;;;5081858;28;45217;-80
2022/10/27 07:56:39;;;;;;;;;11.67;7.33;;;;;;;;5088814;27;44702;-79
2022/10/27 07:59:04;;;;;;;;;6.00;6.00;;;;;;;;5088206;27;45304;-80
2022/10/27 08:01:30;;;;;;;;;9.00;7.67;;;;;;;;5083605;28;45332;-80
2022/10/27 08:03:55;;;;;;;;;5.00;5.00;;;;;;;;5081980;28;45490;-80
2022/10/27 08:06:20;;;;;;;;;7.00;5.00;;;;;;;;5074852;27;45379;-80
2022/10/27 08:08:45;;;;;;;;;5.67;5.67;;;;;;;;5101011;27;46528;-80
2022/10/27 08:11:11;;;;;;;;;7.33;6.67;;;;;;;;5090339;27;45469;-80
2022/10/27 08:13:36;;;;;;;;;9.00;5.67;;;;;;;;5081410;27;45393;-79
2022/10/27 08:16:01;;;;;;;;;6.00;5.67;;;;;;;;5082037;28;45515;-80
2022/10/27 08:18:26;;;;;;;;;7.00;5.33;;;;;;;;5081247;27;45283;-80
2022/10/27 08:20:52;;;;;;;;;11.67;6.33;;;;;;;;5090647;27;45308;-79
2022/10/27 08:23:19;;;;;;;;;5.67;3.67;;;;;;;;5080932;27;45347;-80
2022/10/27 08:25:44;;;;;;;;;8.33;6.00;;;;;;;;5089674;27;45303;-80
2022/10/27 08:28:10;;;;;;;;;7.00;7.00;;;;;;;;5099059;27;45150;-79
2022/10/27 08:30:36;;;;;;;;;7.00;6.00;;;;;;;;5084334;27;45458;-80
2022/10/27 08:33:02;;;;;;;;;7.33;7.00;;;;;;;;5101933;27;45904;-80
2022/10/27 08:35:28;;;;;;;;;8.00;6.33;;;;;;;;5074241;28;45261;-80
2022/10/27 08:38:03;;;;;;;;;6.67;6.67;;;;;;;;5085841;28;45209;-80
2022/10/27 08:40:47;;;;;;;;;8.00;6.33;;;;;;;;5077486;27;45580;-80
2022/10/27 08:43:15;;;;;;;;;6.00;4.00;;;;;;;;5100586;27;47254;-79
2022/10/27 08:45:53;;;;;;;;;9.67;7.00;;;;;;;;5098793;27;45319;-80
2022/10/27 08:48:21;;;;;;;;;6.67;6.67;;;;;;;;5081433;27;45165;-80
2022/10/27 08:50:47;;;;;;;;;7.00;7.00;;;;;;;;5080480;27;46025;-79
2022/10/27 08:53:14;;;;;;;;;6.00;5.33;;;;;;;;5090470;27;45204;-80
2022/10/27 08:55:51;;;;;;;;;9.00;6.00;;;;;;;;5080629;27;45562;-80
2022/10/27 08:58:16;;;;;;;;;9.00;5.00;;;;;;;;5088583;27;45344;-80
2022/10/27 09:01:00;;;;;;;;;7.00;7.00;;;;;;;;5082092;27;46093;-80
2022/10/27 09:03:37;;;;;;;;;8.33;6.33;;;;;;;;5085781;27;45273;-80
2022/10/27 09:06:09;;;;;;;;;6.00;6.00;;;;;;;;5080992;27;45360;-80
2022/10/27 09:08:42;;;;;;;;;9.00;7.00;;;;;;;;5080876;27;45314;-80
2022/10/27 09:11:13;;;;;;;;;5.33;5.33;;;;;;;;5080955;28;45339;-80
2022/10/27 09:13:49;;;;;;;;;5.00;5.00;;;;;;;;5081454;27;46560;-80
2022/10/27 09:16:32;;;;;;;;;6.00;6.00;;;;;;;;5080513;27;45264;-79
2022/10/27 09:19:01;;;;;;;;;6.00;5.67;;;;;;;;5083040;28;45320;-79
2022/10/27 09:21:28;;;;;;;;;6.33;5.00;;;;;;;;5080137;28;45501;-79
2022/10/27 09:23:55;;;;;;;;;7.00;7.00;;;;;;;;5080883;28;45231;-80
2022/10/27 09:26:24;;;;;;;;;6.00;4.67;;;;;;;;5079983;27;45305;-80
2022/10/27 09:28:54;;;;;;;;;7.00;6.67;;;;;;;;5100894;27;45255;-80
2022/10/27 09:31:24;;;;;;;;;9.33;7.67;;;;;;;;5100738;27;45403;-80
2022/10/27 09:34:12;;;;;;;;;10.67;5.00;;;;;;;;5100778;27;46290;-79
2022/10/27 09:36:38;;;;;;;;;10.33;5.00;;;;;;;;5073322;27;45291;-80
2022/10/27 09:39:03;;;;;;;;;8.67;7.33;;;;;;;;5080581;28;45197;-80
2022/10/27 09:41:28;;;;;;;;;11.33;6.67;;;;;;;;5080445;28;45281;-80
2022/10/27 09:43:58;;;;;;;;;10.00;6.67;;;;;;;;5080231;28;45351;-80
2022/10/27 09:46:26;;;;;;;;;6.00;5.67;;;;;;;;5065712;28;45475;-80
2022/10/27 09:48:54;;;;;;;;;7.67;5.00;;;;;;;;5094648;27;45271;-80
2022/10/27 09:51:21;;;;;;;;;8.00;6.67;;;;;;;;5101025;27;45366;-80
2022/10/27 09:53:49;;;;;;;;;6.33;6.00;;;;;;;;5084881;27;48429;-80
2022/10/27 09:56:23;;;;;;;;;9.00;5.33;;;;;;;;5104971;27;45196;-79
2022/10/27 09:58:56;;;;;;;;;8.67;7.67;;;;;;;;5066977;28;45384;-80
2022/10/27 10:01:21;;;;;;;;;7.67;6.67;;;;;;;;5061936;28;45861;-80
2022/10/27 10:03:54;;;;;;;;;8.67;8.67;;;;;;;;5079946;28;46057;-80
2022/10/27 10:06:46;;;;;;;;;5.67;4.00;;;;;;;;5080209;28;45313;-80
2022/10/27 10:09:22;;;;;;;;;5.67;5.67;;;;;;;;5084423;27;45260;-80
2022/10/27 10:11:48;;;;;;;;;7.33;6.00;;;;;;;;5081288;27;45282;-80
2022/10/27 10:14:19;;;;;;;;;7.33;6.00;;;;;;;;5081617;27;47072;-80
2022/10/27 10:16:44;;;;;;;;;9.33;7.00;;;;;;;;5100223;27;45240;-80
2022/10/27 10:19:17;;;;;;;;;6.67;6.67;;;;;;;;5100720;27;45190;-80
2022/10/27 10:21:51;;;;;;;;;5.67;5.67;;;;;;;;5100137;27;45329;-80
2022/10/27 10:24:19;;;;;;;;;8.67;6.00;;;;;;;;5100453;27;45340;-80
2022/10/27 10:26:46;;;;;;;;;11.00;8.00;;;;;;;;5081612;27;45279;-80
2022/10/27 10:29:16;;;;;;;;;9.67;8.00;;;;;;;;5100991;27;45208;-80
2022/10/27 10:31:41;;;;;;;;;10.00;7.33;;;;;;;;5085621;27;45346;-80
2022/10/27 10:34:21;;;;;;;;;11.00;8.00;;;;;;;;5104221;27;46303;-80
2022/10/27 10:36:49;;;;;;;;;7.67;7.67;;;;;;;;5082296;28;45166;-80
2022/10/27 10:39:24;;;;;;;;;7.67;6.00;;;;;;;;5061336;28;45352;-80
2022/10/27 10:42:09;;;;;;;;;6.67;5.33;;;;;;;;5079516;27;45453;-80
2022/10/27 10:44:35;;;;;;;;;9.00;7.33;;;;;;;;5078676;28;46199;-80
2022/10/27 10:47:01;;;;;;;;;8.00;5.00;;;;;;;;5079544;28;45282;-80
2022/10/27 10:49:35;;;;;;;;;9.33;8.00;;;;;;;;5082762;28;45338;-80
2022/10/27 10:52:02;;;;;;;;;10.33;8.00;;;;;;;;5078235;27;45670;-80
2022/10/27 10:54:36;;;;;;;;;8.67;8.67;;;;;;;;5083130;28;45330;-80
2022/10/27 10:57:02;;;;;;;;;12.67;10.67;;;;;;;;5088406;27;45455;-78
2022/10/27 10:59:28;;;;;;;;;13.00;11.00;;;;;;;;5073524;27;45399;-81
2022/10/27 11:01:55;;;;;;;;;8.67;8.67;;;;;;;;5087276;27;45396;-81
2022/10/27 11:04:22;;;;;;;;;11.00;8.00;;;;;;;;5082791;28;45440;-78
2022/10/27 11:06:53;;;;;;;;;6.67;5.67;;;;;;;;5082775;28;45166;-81
2022/10/27 11:09:19;;;;;;;;;8.67;6.33;;;;;;;;5082884;27;45331;-78
2022/10/27 11:11:45;;;;;;;;;10.00;9.33;;;;;;;;5084814;27;45175;-80
2022/10/27 11:14:13;;;;;;;;;12.00;10.00;;;;;;;;5084970;28;45236;-80
2022/10/27 11:16:40;;;;;;;;;14.00;7.67;;;;;;;;5082275;27;45290;-80
2022/10/27 11:19:08;;;;;;;;;9.33;9.33;;;;;;;;5074752;28;45554;-80
2022/10/27 11:21:49;;;;;;;;;12.33;9.00;;;;;;;;5064593;28;45317;-80
2022/10/27 11:24:19;;;;;;;;;10.00;9.67;;;;;;;;5095748;27;45570;-80
2022/10/27 11:26:59;;;;;;;;;7.75;7.50;;;;;;;;5102862;27;45314;-80
2022/10/27 11:29:42;;;;;;;;;9.67;8.00;;;;;;;;5102788;27;45414;-81
2022/10/27 11:32:23;;;;;;;;;9.33;8.67;;;;;;;;5102857;27;45226;-81
2022/10/27 11:35:08;;;;;;;;;10.75;7.25;;;;;;;;5096841;27;45409;-81
2022/10/27 11:37:38;;;;;;;;;7.50;6.25;;;;;;;;5077886;27;45346;-80
2022/10/27 11:40:12;;;;;;;;;9.00;8.25;;;;;;;;5082510;28;45278;-80
2022/10/27 11:42:42;;;;;;;;;14.75;10.50;;;;;;;;5082114;27;45419;-80
2022/10/27 11:45:22;;;;;;;;;10.00;9.00;;;;;;;;5074257;27;47406;-80
2022/10/27 11:47:49;;;;;;;;;10.00;7.25;;;;;;;;5082891;27;45360;-80
2022/10/27 11:50:15;;;;;;;;;9.25;4.75;;;;;;;;5083429;27;45347;-81
2022/10/27 11:52:45;;;;;;;;;7.25;7.25;;;;;;;;5088008;27;46076;-81
2022/10/27 11:55:13;;;;;;;;;5.25;5.25;;;;;;;;5090851;27;45265;-80
2022/10/27 11:57:50;;;;;;;;;7.50;5.25;;;;;;;;5076317;27;45437;-80
2022/10/27 12:00:19;;;;;;;;;8.50;6.75;;;;;;;;5098081;27;45340;-80
2022/10/27 12:03:01;;;;;;;;;8.25;7.25;;;;;;;;5082008;28;45441;-81
2022/10/27 12:05:45;;;;;;;;;6.00;5.00;;;;;;;;5081643;27;45413;-80
2022/10/27 12:08:19;;;;;;;;;6.00;6.00;;;;;;;;5081613;27;45336;-78
2022/10/27 12:10:50;;;;;;;;;9.50;7.00;;;;;;;;5081921;27;45353;-78
2022/10/27 12:13:35;;;;;;;;;0.25;0.25;;;;;;;;5081528;28;45201;-78
2022/10/27 12:16:04;;;;;;;;;8.25;8.25;;;;;;;;5051410;28;45222;-79
2022/10/27 12:18:48;;;;;;;;;6.60;5.00;;;;;;;;5098355;27;45356;-78
2022/10/27 12:21:22;;;;;;;;;8.75;6.75;;;;;;;;5102079;27;45276;-78
2022/10/27 12:23:53;;;;;;;;;7.75;7.00;;;;;;;;5102129;27;45361;-78
2022/10/27 12:26:21;;;;;;;;;9.75;7.00;;;;;;;;5101649;27;45281;-79
2022/10/27 12:28:47;;;;;;;;;7.60;6.80;;;;;;;;5101924;27;45229;-78
2022/10/27 12:31:17;;;;;;;;;7.50;7.25;;;;;;;;5103324;27;45240;-78
2022/10/27 12:33:48;;;;;;;;;5.75;4.25;;;;;;;;5102186;27;45265;-78
2022/10/27 12:36:20;;;;;;;;;8.50;7.00;;;;;;;;5085219;27;45196;-77
2022/10/27 12:38:57;;;;;;;;;6.25;6.00;;;;;;;;5081570;28;45220;-78
2022/10/27 12:41:31;;;;;;;;;7.00;7.00;;;;;;;;5087067;27;45523;-80
2022/10/27 12:44:13;;;;;;;;;9.50;5.75;;;;;;;;5068899;28;45324;-80
2022/10/27 12:46:52;;;;;;;;;10.50;8.50;;;;;;;;5081290;28;45417;-81
2022/10/27 12:49:20;;;;;;;;;9.00;7.25;;;;;;;;5080865;27;45275;-80
2022/10/27 12:51:54;;;;;;;;;6.50;6.00;;;;;;;;5090226;27;45324;-81
2022/10/27 12:54:19;;;;;;;;;2.25;2.25;;;;;;;;5080942;28;45230;-80
2022/10/27 12:56:54;;;;;;;;;7.75;7.75;;;;;;;;5085948;27;45348;-80
2022/10/27 12:59:26;;;;;;;;;6.50;6.00;;;;;;;;5086494;27;45291;-81
2022/10/27 13:01:51;;;;;;;;;6.00;6.00;;;;;;;;5101961;27;45217;-80
2022/10/27 13:04:25;;;;;;;;;6.75;5.75;;;;;;;;5082586;27;47124;-81
2022/10/27 13:06:59;;;;;;;;;7.75;7.75;;;;;;;;5101978;27;45360;-80
2022/10/27 13:09:36;;;;;;;;;6.00;5.50;;;;;;;;5083232;27;45427;-80
2022/10/27 13:12:13;;;;;;;;;5.50;5.00;;;;;;;;5104986;27;45158;-80
2022/10/27 13:14:41;;;;;;;;;5.50;5.00;;;;;;;;5101039;27;45336;-80
2022/10/27 13:17:13;;;;;;;;;7.00;6.00;;;;;;;;5082727;27;47115;-81
2022/10/27 13:20:00;;;;;;;;;6.00;5.00;;;;;;;;5101237;27;45203;-81
2022/10/27 13:22:31;;;;;;;;;8.25;7.00;;;;;;;;5082858;27;45276;-81
2022/10/27 13:25:04;;;;;;;;;9.00;7.50;;;;;;;;5100987;27;45180;-80
2022/10/27 13:27:45;;;;;;;;;7.25;5.00;;;;;;;;5100724;27;45544;-80
2022/10/27 13:30:19;;;;;;;;;7.00;5.25;;;;;;;;5074212;28;45301;-80
2022/10/27 13:32:44;;;;;;;;;9.50;6.75;;;;;;;;5096675;27;45343;-81
2022/10/27 13:35:10;;;;;;;;;7.00;6.00;;;;;;;;5073449;28;46162;-80
2022/10/27 13:37:47;;;;;;;;;6.75;6.25;;;;;;;;5080606;27;45433;-80
2022/10/27 13:40:18;;;;;;;;;6.00;6.00;;;;;;;;5080608;28;45327;-78
2022/10/27 13:42:43;;;;;;;;;8.25;6.00;;;;;;;;5080087;27;45210;-79
2022/10/27 13:45:27;;;;;;;;;6.50;5.50;;;;;;;;5089352;27;45262;-80
2022/10/27 13:48:08;;;;;;;;;8.25;7.25;;;;;;;;5069074;27;45980;-80
2022/10/27 13:50:35;;;;;;;;;7.50;7.00;;;;;;;;5082240;27;45272;-80
2022/10/27 13:53:15;;;;;;;;;6.75;5.50;;;;;;;;5103593;27;45239;-80
2022/10/27 13:55:40;;;;;;;;;10.50;8.00;;;;;;;;5100407;27;45501;-80
2022/10/27 13:58:08;;;;;;;;;6.50;6.50;;;;;;;;5089140;27;45320;-80
2022/10/27 14:00:39;;;;;;;;;9.25;6.75;;;;;;;;5079980;28;45447;-80
2022/10/27 14:03:09;;;;;;;;;9.00;6.00;;;;;;;;5080215;28;45348;-80
2022/10/27 14:05:37;;;;;;;;;6.00;6.00;;;;;;;;5079934;27;45226;-80
2022/10/27 14:08:03;;;;;;;;;5.75;4.75;;;;;;;;5079781;28;45278;-80
2022/10/27 14:10:28;;;;;;;;;9.50;7.00;;;;;;;;5080007;27;45182;-80
2022/10/27 14:12:54;;;;;;;;;8.75;7.25;;;;;;;;5080117;27;45224;-80
2022/10/27 14:15:24;;;;;;;;;7.00;4.00;;;;;;;;5079606;28;45523;-80
2022/10/27 14:17:51;;;;;;;;;6.00;6.00;;;;;;;;5079887;28;46944;-80
2022/10/27 14:20:22;;;;;;;;;6.00;6.00;;;;;;;;5079904;28;45268;-80
2022/10/27 14:22:52;;;;;;;;;6.25;5.25;;;;;;;;5080634;28;45316;-80
2022/10/27 14:25:17;;;;;;;;;7.25;5.25;;;;;;;;5083370;27;45295;-78
2022/10/27 14:27:43;;;;;;;;;5.75;4.75;;;;;;;;5097463;27;46158;-78
2022/10/27 14:30:16;;;;;;;;;8.00;6.50;;;;;;;;5105293;27;45441;-80
2022/10/27 14:32:41;;;;;;;;;8.00;6.00;;;;;;;;5106164;27;45242;-80
2022/10/27 14:35:26;;;;;;;;;7.75;6.50;;;;;;;;5098467;27;45184;-80
2022/10/27 14:37:56;;;;;;;;;9.00;7.00;;;;;;;;5084315;27;46799;-80
2022/10/27 14:40:22;;;;;;;;;5.25;5.25;;;;;;;;5101868;27;45330;-80
2022/10/27 14:42:48;;;;;;;;;6.50;6.50;;;;;;;;5103608;27;45327;-80
2022/10/27 14:45:18;;;;;;;;;6.25;6.00;;;;;;;;5103157;27;45428;-80
2022/10/27 14:47:47;;;;;;;;;8.67;6.67;;;;;;;;5103417;27;45356;-81
2022/10/27 14:50:24;;;;;;;;;6.00;6.00;;;;;;;;5103573;27;45345;-80
2022/10/27 14:52:53;;;;;;;;;7.50;7.00;;;;;;;;5103766;27;45310;-80
2022/10/27 14:55:26;;;;;;;;;9.00;5.00;;;;;;;;5103346;27;45476;-80
2022/10/27 14:57:51;;;;;;;;;9.00;6.00;;;;;;;;5094788;27;46122;-80
2022/10/27 15:00:24;;;;;;;;;6.75;6.25;;;;;;;;5082616;27;45164;-80
2022/10/27 15:02:50;;;;;;;;;10.75;5.75;;;;;;;;5074403;27;45285;-80
2022/10/27 15:05:30;;;;;;;;;6.00;6.00;;;;;;;;5082454;27;45239;-80
2022/10/27 15:07:56;;;;;;;;;3.00;2.00;;;;;;;;5082964;27;45351;-81
2022/10/27 15:10:22;;;;;;;;;8.25;8.00;;;;;;;;5083980;27;45336;-80
2022/10/27 15:12:50;;;;;;;;;9.75;6.50;;;;;;;;5094145;27;45225;-79